Time;durP1;ratioP1;P1;durP2;ratioP2;P2;SDS_P1;SDS_P2;PMS_P1;PMS_P2;Temp;Humidity;BMP_temperature;BMP_pressure;BME280_temperature;BME280_humidity;BME280_pressure;Samples;Min_cycle;Max_cycle;Signal;HPM_P1;HPM_P2
2021/07/29 00:01:36;;;;;;;4.07;3.75;;;16.20;99.90;;;16.97;88.37;97834.25;5277442;28;20290;-81
2021/07/29 00:04:11;;;;;;;4.40;4.00;;;16.10;99.90;;;16.89;88.65;97836.59;5289701;28;20227;-81
2021/07/29 00:06:44;;;;;;;4.25;3.95;;;16.00;99.90;;;16.86;88.21;97827.88;5288732;28;20564;-81
2021/07/29 00:09:17;;;;;;;4.30;3.90;;;16.00;99.90;;;16.77;90.63;97827.56;5287284;28;20201;-81
2021/07/29 00:11:50;;;;;;;4.50;4.10;;;16.00;99.90;;;16.73;90.31;97825.69;5287885;28;20209;-81
2021/07/29 00:14:23;;;;;;;4.65;4.25;;;15.90;99.90;;;16.76;90.33;97825.78;5289592;28;20716;-81
2021/07/29 00:17:00;;;;;;;4.53;4.13;;;16.00;99.90;;;16.76;90.27;97824.09;5287639;28;20665;-80
2021/07/29 00:19:33;;;;;;;4.80;4.38;;;16.00;99.90;;;16.73;90.02;97820.53;5285653;28;20714;-81
2021/07/29 00:22:07;;;;;;;4.00;3.70;;;16.00;99.90;;;16.68;89.75;97817.78;5271545;28;20199;-80
2021/07/29 00:24:40;;;;;;;4.82;4.45;;;15.90;99.90;;;16.66;89.70;97814.28;5278488;28;20198;-80
2021/07/29 00:27:13;;;;;;;4.57;4.28;;;15.90;99.90;;;16.65;89.84;97810.84;5289018;28;20190;-80
2021/07/29 00:29:46;;;;;;;4.55;4.15;;;15.90;99.90;;;16.62;89.17;97815.88;5286796;28;20206;-80
2021/07/29 00:32:19;;;;;;;5.05;4.55;;;15.80;99.90;;;16.63;89.40;97812.50;5284749;28;20203;-81
2021/07/29 00:34:53;;;;;;;4.57;4.28;;;15.80;99.90;;;16.62;90.00;97807.25;5284462;28;20192;-81
2021/07/29 00:37:26;;;;;;;4.65;4.25;;;15.80;99.90;;;16.63;89.86;97806.47;5268053;28;20693;-81
2021/07/29 00:40:00;;;;;;;6.65;4.75;;;15.80;99.90;;;16.65;91.24;97808.25;5281175;28;20592;-81
2021/07/29 00:42:33;;;;;;;5.07;4.57;;;15.90;99.90;;;16.65;90.67;97807.38;5288791;28;20889;-81
2021/07/29 00:45:08;;;;;;;5.45;4.95;;;15.80;99.90;;;16.62;90.69;97808.13;5289485;28;20582;-81
2021/07/29 00:47:43;;;;;;;4.93;4.53;;;15.90;99.90;;;16.60;90.73;97814.09;5289625;28;20203;-81
2021/07/29 00:50:29;;;;;;;4.80;4.40;;;15.80;99.90;;;16.59;90.63;97815.78;5287603;28;20261;-81
2021/07/29 00:53:02;;;;;;;4.70;4.30;;;15.80;99.90;;;16.53;90.62;97813.00;5289547;28;20215;-80
2021/07/29 00:55:35;;;;;;;5.20;4.70;;;15.70;99.90;;;16.52;90.88;97816.41;5290208;28;20203;-79
2021/07/29 00:58:08;;;;;;;4.95;4.50;;;15.70;99.90;;;16.55;90.23;97816.53;5289091;28;20681;-81
2021/07/29 01:00:42;;;;;;;4.97;4.50;;;15.70;99.90;;;16.54;90.81;97821.63;5288854;28;20203;-81
2021/07/29 01:03:16;;;;;;;5.20;4.70;;;15.70;99.90;;;16.50;90.67;97823.22;5288823;28;20226;-81
2021/07/29 01:05:51;;;;;;;4.82;4.38;;;15.70;99.90;;;16.43;90.72;97814.41;5289526;28;20580;-81
2021/07/29 01:08:24;;;;;;;4.20;3.90;;;15.60;99.90;;;16.42;90.65;97809.19;5289015;28;20579;-78
2021/07/29 01:10:57;;;;;;;5.93;4.20;;;15.60;99.90;;;16.42;90.51;97809.19;5290965;28;20200;-81
2021/07/29 01:13:30;;;;;;;4.88;4.38;;;15.60;99.90;;;16.37;90.71;97813.34;5288942;28;20210;-81
2021/07/29 01:16:03;;;;;;;4.82;4.43;;;15.50;99.90;;;16.33;90.57;97811.47;5293584;28;20204;-81
2021/07/29 01:18:36;;;;;;;5.70;5.00;;;15.50;99.90;;;16.30;90.44;97808.78;5292961;28;20620;-81
2021/07/29 01:21:10;;;;;;;4.43;4.13;;;15.50;99.90;;;16.21;90.65;97809.34;5293160;28;20195;-81
2021/07/29 01:23:44;;;;;;;6.15;4.93;;;15.40;99.90;;;16.17;90.89;97803.22;5292799;28;20224;-80
2021/07/29 01:26:17;;;;;;;5.32;4.93;;;15.40;99.90;;;16.21;91.97;97810.22;5292822;28;20193;-81
2021/07/29 01:28:50;;;;;;;5.30;4.80;;;15.40;99.90;;;16.24;91.79;97808.59;5290618;28;20188;-82
2021/07/29 01:31:23;;;;;;;4.97;4.47;;;15.40;99.90;;;16.19;92.11;97800.69;5293384;28;20231;-82
2021/07/29 01:33:57;;;;;;;5.32;4.78;;;15.40;99.90;;;16.20;92.49;97803.31;5292752;28;20249;-82
2021/07/29 01:36:31;;;;;;;4.70;4.30;;;15.50;99.90;;;16.24;91.60;97798.28;5292799;28;20201;-82
2021/07/29 01:39:04;;;;;;;4.88;4.43;;;15.40;99.90;;;16.24;91.35;97798.28;5290792;28;20222;-81
2021/07/29 01:41:38;;;;;;;5.00;4.60;;;15.40;99.90;;;16.21;91.05;97805.06;5278886;28;20205;-81
2021/07/29 01:44:11;;;;;;;4.57;4.18;;;15.40;99.90;;;16.27;91.54;97811.28;5292852;28;20222;-81
2021/07/29 01:46:44;;;;;;;4.97;4.57;;;15.40;99.90;;;16.27;91.36;97800.94;5292523;28;20203;-81
2021/07/29 01:49:21;;;;;;;4.80;4.40;;;15.50;99.90;;;16.24;91.79;97795.69;5289499;28;20237;-81
2021/07/29 01:51:56;;;;;;;4.40;4.10;;;15.50;99.90;;;16.30;91.81;97801.06;5271449;28;20206;-81
2021/07/29 01:54:29;;;;;;;5.10;4.65;;;15.50;99.90;;;16.25;91.91;97798.31;5272928;28;20223;-80
2021/07/29 01:57:02;;;;;;;4.65;4.03;;;15.50;99.90;;;16.20;91.71;97805.03;5291376;28;20578;-79
2021/07/29 01:59:36;;;;;;;5.07;4.60;;;15.40;99.90;;;16.25;91.51;97800.00;5291526;28;20223;-81
2021/07/29 02:02:09;;;;;;;5.13;4.70;;;15.50;99.90;;;16.26;91.74;97796.63;5292158;28;20708;-80
2021/07/29 02:04:42;;;;;;;5.13;4.65;;;15.50;99.90;;;16.23;91.40;97801.69;5271105;28;20725;-81
2021/07/29 02:07:17;;;;;;;5.32;4.80;;;15.40;99.90;;;16.20;91.34;97798.16;5274330;28;20210;-81
2021/07/29 02:09:50;;;;;;;5.32;4.88;;;15.40;99.90;;;16.15;92.26;97791.97;5277396;28;20615;-81
2021/07/29 02:12:23;;;;;;;5.30;4.60;;;15.50;99.90;;;16.26;91.96;97799.22;5291017;28;20187;-80
2021/07/29 02:14:56;;;;;;;4.57;4.30;;;15.50;99.90;;;16.30;91.55;97795.91;5291479;28;20210;-80
2021/07/29 02:17:29;;;;;;;5.28;4.88;;;15.50;99.90;;;16.30;91.86;97798.47;5290681;28;20223;-82
2021/07/29 02:20:03;;;;;;;5.07;4.50;;;15.50;99.90;;;16.28;92.30;97795.88;5289598;28;20290;-81
2021/07/29 02:22:37;;;;;;;4.85;4.32;;;15.60;99.90;;;16.26;91.50;97796.63;5291960;28;20583;-80
2021/07/29 02:25:12;;;;;;;4.97;4.57;;;15.50;99.90;;;16.18;90.48;97794.66;5291945;28;20206;-82
2021/07/29 02:27:45;;;;;;;4.47;4.07;;;15.40;99.90;;;16.18;91.05;97804.09;5290223;28;20198;-82
2021/07/29 02:30:18;;;;;;;5.03;4.60;;;15.40;99.90;;;16.21;91.37;97806.78;5291540;28;20187;-82
2021/07/29 02:32:52;;;;;;;5.00;4.55;;;15.40;99.90;;;16.16;91.93;97804.03;5291543;28;20238;-82
2021/07/29 02:35:25;;;;;;;4.97;4.38;;;15.40;99.90;;;16.11;91.50;97800.44;5291632;27;20195;-81
2021/07/29 02:38:00;;;;;;;6.28;4.80;;;15.30;99.90;;;16.16;91.52;97801.44;5290442;28;20199;-81
2021/07/29 02:40:33;;;;;;;5.18;4.68;;;15.30;99.90;;;16.14;91.49;97799.69;5290309;28;20224;-81
2021/07/29 02:43:06;;;;;;;5.45;5.03;;;15.30;99.90;;;16.20;91.67;97808.50;5290896;28;20280;-81
2021/07/29 02:45:39;;;;;;;5.28;4.78;;;15.40;99.90;;;16.11;91.04;97808.19;5291257;28;20583;-81
2021/07/29 02:48:12;;;;;;;5.13;4.75;;;15.30;99.90;;;16.12;90.98;97807.34;5289870;28;20209;-81
2021/07/29 02:50:53;;;;;;;5.90;4.95;;;15.30;99.90;;;16.13;91.09;97805.63;5290857;28;20202;-82
2021/07/29 02:53:32;;;;;;;5.47;4.97;;;15.30;99.90;;;16.22;91.64;97811.09;5286863;28;20214;-82
2021/07/29 02:56:08;;;;;;;5.35;4.85;;;15.40;99.90;;;16.27;91.94;97816.44;5291729;28;20180;-81
2021/07/29 02:58:41;;;;;;;5.20;4.80;;;15.50;99.90;;;16.28;92.16;97813.00;5276497;28;20213;-81
2021/07/29 03:01:14;;;;;;;5.10;4.60;;;15.50;99.90;;;16.21;92.03;97814.50;5290679;27;20203;-82
2021/07/29 03:03:47;;;;;;;5.40;4.97;;;15.50;99.90;;;16.21;92.64;97815.38;5291745;28;20221;-82
2021/07/29 03:06:20;;;;;;;5.63;5.13;;;15.50;99.90;;;16.26;92.54;97812.97;5290855;28;20191;-82
2021/07/29 03:08:56;;;;;;;4.57;4.18;;;15.50;99.90;;;16.27;92.59;97813.84;5290706;28;20203;-80
2021/07/29 03:11:29;;;;;;;5.25;4.75;;;15.50;99.90;;;16.30;91.80;97819.09;5275962;28;20189;-81
2021/07/29 03:14:02;;;;;;;5.25;4.82;;;15.50;99.90;;;16.35;91.74;97822.72;5290375;28;20219;-80
2021/07/29 03:16:35;;;;;;;5.78;4.75;;;15.50;99.90;;;16.35;91.74;97815.84;5290708;28;20247;-81
2021/07/29 03:19:08;;;;;;;4.90;4.50;;;15.60;99.90;;;16.31;91.45;97814.00;5287342;28;20211;-81
2021/07/29 03:21:42;;;;;;;5.07;4.65;;;15.50;99.90;;;16.30;91.86;97814.81;5288143;28;20210;-82
2021/07/29 03:24:16;;;;;;;4.80;4.45;;;15.60;99.90;;;16.28;92.70;97805.28;5291176;28;20586;-81
2021/07/29 03:26:49;;;;;;;5.00;4.60;;;15.60;99.90;;;16.33;91.57;97814.91;5288002;28;20204;-82
2021/07/29 03:29:27;;;;;;;5.93;5.30;;;15.50;99.90;;;16.37;91.21;97813.34;5290848;28;20195;-82
2021/07/29 03:32:00;;;;;;;5.40;4.90;;;15.50;99.90;;;16.32;91.97;97810.59;5289014;28;20713;-81
2021/07/29 03:34:33;;;;;;;5.43;4.97;;;15.50;99.90;;;16.32;92.00;97818.34;5290900;28;20211;-82
2021/07/29 03:37:06;;;;;;;5.55;4.70;;;15.60;99.90;;;16.34;92.03;97810.63;5269493;28;20199;-80
2021/07/29 03:39:40;;;;;;;4.93;4.53;;;15.60;99.90;;;16.37;91.89;97816.78;5269313;28;20224;-80
2021/07/29 03:42:13;;;;;;;6.03;5.47;;;15.60;99.90;;;16.32;92.94;97814.88;5288474;28;20201;-81
2021/07/29 03:44:46;;;;;;;5.18;4.70;;;15.60;99.90;;;16.33;92.32;97814.06;5290076;28;20195;-80
2021/07/29 03:47:19;;;;;;;5.10;4.70;;;15.60;99.90;;;16.32;91.65;97807.16;5288185;28;20192;-82
2021/07/29 03:49:53;;;;;;;5.18;4.78;;;15.50;99.90;;;16.33;91.60;97808.88;5280330;28;20202;-82
2021/07/29 03:52:26;;;;;;;5.13;4.72;;;15.60;99.90;;;16.29;91.48;97819.94;5287208;28;20198;-80
2021/07/29 03:55:05;;;;;;;5.88;4.88;;;15.50;99.90;;;16.33;91.35;97819.22;5268500;28;21035;-81
2021/07/29 03:57:38;;;;;;;4.95;4.45;;;15.50;99.90;;;16.33;90.80;97819.22;5281683;28;20191;-81
2021/07/29 04:00:16;;;;;;;5.60;5.10;;;15.50;99.90;;;16.35;91.50;97820.16;5288466;28;20233;-81
2021/07/29 04:02:49;;;;;;;5.60;5.20;;;15.50;99.90;;;16.38;91.72;97818.53;5287462;28;20875;-81
2021/07/29 04:05:22;;;;;;;5.45;4.95;;;15.60;99.90;;;16.36;91.66;97811.56;5289278;28;20201;-81
2021/07/29 04:07:55;;;;;;;5.30;4.80;;;15.50;99.90;;;16.38;90.96;97818.53;5288685;28;20199;-81
2021/07/29 04:10:29;;;;;;;7.70;5.35;;;15.60;99.90;;;16.38;91.92;97815.09;5290158;28;20194;-78
2021/07/29 04:13:03;;;;;;;5.45;4.95;;;15.60;99.90;;;16.37;91.27;97823.66;5288991;28;20293;-81
2021/07/29 04:15:36;;;;;;;5.63;5.07;;;15.60;99.90;;;16.38;91.05;97828.84;5288264;28;20278;-81
2021/07/29 04:18:09;;;;;;;5.85;5.22;;;15.50;99.90;;;16.38;90.71;97830.56;5290857;28;20575;-81
2021/07/29 04:20:43;;;;;;;5.13;4.63;;;15.60;99.90;;;16.41;91.14;97833.25;5290152;28;20688;-81
2021/07/29 04:23:17;;;;;;;5.05;4.72;;;15.60;99.90;;;16.43;91.43;97832.47;5290704;28;20210;-81
2021/07/29 04:25:52;;;;;;;4.82;4.53;;;15.60;99.90;;;16.53;91.02;97837.94;5290045;28;20289;-82
2021/07/29 04:28:25;;;;;;;5.22;4.72;;;15.70;99.90;;;16.55;91.43;97838.88;5289140;28;20195;-81
2021/07/29 04:30:58;;;;;;;5.55;5.13;;;15.70;99.90;;;16.50;91.93;97843.88;5281618;28;20282;-82
2021/07/29 04:33:31;;;;;;;5.50;5.00;;;15.70;99.90;;;16.57;90.71;97843.25;5290601;28;20245;-82
2021/07/29 04:36:06;;;;;;;5.25;4.75;;;15.70;99.90;;;16.54;91.07;97839.69;5282469;28;20706;-81
2021/07/29 04:38:39;;;;;;;6.15;4.85;;;15.70;99.90;;;16.58;91.20;97836.41;5289519;28;20266;-83
2021/07/29 04:41:14;;;;;;;5.30;4.85;;;15.80;99.90;;;16.61;90.62;97842.53;5281139;28;20223;-82
2021/07/29 04:43:47;;;;;;;5.10;4.70;;;15.80;99.90;;;16.65;90.30;97843.50;5285913;28;20218;-81
2021/07/29 04:46:20;;;;;;;5.15;4.68;;;15.80;99.90;;;16.61;91.50;97847.69;5291070;28;20206;-81
2021/07/29 04:48:53;;;;;;;7.32;5.28;;;15.90;99.90;;;16.59;91.41;97851.03;5285907;28;20208;-82
2021/07/29 04:51:26;;;;;;;5.55;5.05;;;15.90;99.90;;;16.61;91.19;97852.84;5288584;28;20202;-82
2021/07/29 04:53:59;;;;;;;5.18;4.78;;;15.80;99.90;;;16.67;90.40;97853.03;5302544;28;20245;-81
2021/07/29 04:56:33;;;;;;;5.30;4.90;;;15.80;99.90;;;16.67;90.11;97853.03;5299371;28;20192;-82
2021/07/29 04:59:07;;;;;;;5.55;5.15;;;15.90;99.90;;;16.70;90.57;97851.41;5301343;28;20194;-80
2021/07/29 05:01:40;;;;;;;5.75;5.25;;;15.90;99.90;;;16.73;90.68;97848.91;5300462;28;20325;-81
2021/07/29 05:04:13;;;;;;;5.47;5.00;;;15.90;99.90;;;16.75;90.52;97844.69;5297692;27;20212;-81
2021/07/29 05:06:47;;;;;;;6.18;5.68;;;15.90;99.90;;;16.83;90.53;97843.28;5301826;28;20263;-80
2021/07/29 05:09:20;;;;;;;5.47;5.07;;;16.00;99.90;;;16.86;90.69;97845.94;5299287;28;20206;-81
2021/07/29 05:11:54;;;;;;;5.90;5.40;;;16.00;99.90;;;16.86;90.12;97839.06;5300891;28;20262;-83
2021/07/29 05:14:27;;;;;;;5.70;5.20;;;16.10;99.90;;;16.97;90.32;97841.09;5299537;27;20218;-81
2021/07/29 05:17:01;;;;;;;5.55;5.05;;;16.10;99.90;;;16.98;90.96;97838.59;5298683;28;20191;-80
2021/07/29 05:19:39;;;;;;;5.18;4.78;;;16.20;99.90;;;17.01;89.70;97842.97;5286269;28;20280;-81
2021/07/29 05:22:12;;;;;;;6.18;5.57;;;16.20;99.90;;;16.99;89.74;97842.91;5295826;28;20279;-80
2021/07/29 05:24:45;;;;;;;5.43;5.03;;;16.10;99.90;;;17.05;90.26;97842.22;5296843;28;20199;-82
2021/07/29 05:27:20;;;;;;;5.38;4.90;;;16.20;99.90;;;17.09;89.42;97842.38;5297904;28;20207;-81
2021/07/29 05:29:53;;;;;;;5.72;5.22;;;16.20;99.90;;;17.15;88.83;97840.81;5300568;28;20213;-82
2021/07/29 05:32:26;;;;;;;5.88;4.90;;;16.20;99.90;;;17.11;89.26;97835.56;5297006;28;20302;-82
2021/07/29 05:34:59;;;;;;;5.50;5.00;;;16.20;99.90;;;17.11;89.74;97840.72;5294856;28;20724;-81
2021/07/29 05:37:32;;;;;;;6.20;5.60;;;16.30;99.90;;;17.10;89.25;97844.13;5296908;28;20560;-82
2021/07/29 05:40:08;;;;;;;5.63;5.13;;;16.30;99.90;;;17.18;89.41;97846.09;5296151;28;20243;-81
2021/07/29 05:42:42;;;;;;;5.43;4.93;;;16.30;99.90;;;17.24;89.29;97851.44;5294640;28;20221;-82
2021/07/29 05:45:15;;;;;;;5.28;4.63;;;16.40;99.90;;;17.28;89.31;97848.09;5294641;28;20205;-82
2021/07/29 05:47:48;;;;;;;5.15;4.65;;;16.40;99.90;;;17.39;88.52;97844.13;5294717;28;20205;-82
2021/07/29 05:50:21;;;;;;;5.85;5.40;;;16.50;99.90;;;17.47;88.07;97852.13;5294165;28;20203;-82
2021/07/29 05:52:54;;;;;;;5.43;4.93;;;16.60;99.90;;;17.56;88.32;97845.50;5295028;28;20283;-82
2021/07/29 05:55:28;;;;;;;6.40;5.80;;;16.70;99.90;;;17.61;87.74;97845.66;5292352;28;20669;-82
2021/07/29 05:58:02;;;;;;;5.75;5.25;;;16.70;99.90;;;17.72;86.87;97840.81;5278659;28;20294;-82
2021/07/29 06:00:35;;;;;;;5.57;5.10;;;16.80;99.90;;;17.76;87.58;97843.50;5274188;28;20305;-82
2021/07/29 06:03:08;;;;;;;5.38;4.85;;;16.90;99.90;;;17.84;88.23;97843.75;5286996;28;20357;-82
2021/07/29 06:05:42;;;;;;;6.00;5.22;;;17.00;99.90;;;17.94;87.01;97840.59;5284983;28;20196;-82
2021/07/29 06:08:15;;;;;;;4.88;4.47;;;17.10;99.90;;;18.10;86.53;97847.06;5285436;28;20199;-82
2021/07/29 06:10:48;;;;;;;5.93;5.40;;;17.10;99.90;;;18.22;85.82;97842.22;5294523;28;20195;-82
2021/07/29 06:13:22;;;;;;;5.30;4.90;;;17.20;99.90;;;18.38;85.49;97846.09;5294830;28;20302;-82
2021/07/29 06:15:55;;;;;;;5.72;5.22;;;17.40;99.90;;;18.46;84.44;97836.81;5293094;28;20211;-82
2021/07/29 06:18:29;;;;;;;4.80;4.50;;;17.50;99.90;;;18.62;84.98;97837.19;5292021;28;20588;-82
2021/07/29 06:21:03;;;;;;;5.32;4.93;;;17.70;99.90;;;18.75;84.22;97831.53;5287435;28;20309;-82
2021/07/29 06:23:36;;;;;;;5.88;5.28;;;17.70;99.90;;;18.90;83.29;97831.88;5278735;28;20226;-82
2021/07/29 06:26:10;;;;;;;5.22;4.75;;;17.90;99.90;;;18.99;82.85;97831.22;5277432;28;20202;-82
2021/07/29 06:28:45;;;;;;;5.65;4.70;;;18.00;99.90;;;19.11;83.19;97838.41;5279367;28;20563;-82
2021/07/29 06:31:18;;;;;;;5.63;5.13;;;18.10;99.90;;;19.28;82.09;97838.78;5287054;28;20680;-83
2021/07/29 06:33:51;;;;;;;5.22;4.55;;;18.20;99.90;;;19.38;81.46;97837.28;5291388;28;20293;-85
2021/07/29 06:36:25;;;;;;;5.38;4.90;;;18.40;99.90;;;19.54;81.36;97836.75;5292004;28;20282;-84
2021/07/29 06:38:59;;;;;;;5.50;5.00;;;18.50;99.90;;;19.68;80.64;97837.94;5289587;28;20258;-83
2021/07/29 06:41:32;;;;;;;4.80;4.40;;;18.60;99.90;;;19.74;80.73;97838.09;5289239;28;20234;-84
2021/07/29 06:44:09;;;;;;;5.28;4.78;;;18.70;99.90;;;19.90;80.08;97848.78;5284445;28;20285;-83
2021/07/29 06:46:42;;;;;;;6.80;5.45;;;18.80;99.90;;;20.00;79.63;97842.91;5288069;28;20286;-84
2021/07/29 06:49:15;;;;;;;5.13;4.72;;;19.00;99.90;;;20.09;78.78;97842.22;5285489;28;20203;-83
2021/07/29 06:51:48;;;;;;;5.32;4.82;;;19.00;99.90;;;20.24;78.13;97840.78;5289593;28;20211;-84
2021/07/29 06:54:21;;;;;;;5.38;4.88;;;19.10;99.90;;;20.30;77.87;97842.63;5288316;28;20215;-83
2021/07/29 06:56:54;;;;;;;5.95;5.20;;;19.20;99.90;;;20.42;77.57;97844.56;5288178;28;20209;-82
2021/07/29 06:59:29;;;;;;;5.28;4.88;;;19.30;99.90;;;20.57;77.45;97849.19;5286144;28;20192;-83
2021/07/29 07:02:02;;;;;;;4.45;4.15;;;19.50;99.90;;;20.73;76.78;97851.22;5292061;28;20229;-82
2021/07/29 07:04:35;;;;;;;5.53;5.03;;;19.60;99.90;;;21.03;75.56;97849.94;5289198;28;20239;-83
2021/07/29 07:07:15;;;;;;;5.05;4.65;;;19.80;99.90;;;21.20;74.70;97853.66;5278931;28;20191;-82
2021/07/29 07:09:48;;;;;;;5.10;4.70;;;20.00;99.90;;;21.49;73.92;97843.75;5288192;28;20188;-81
2021/07/29 07:12:22;;;;;;;4.40;4.10;;;20.20;99.90;;;21.67;72.36;97855.25;5287342;28;20638;-84
2021/07/29 07:18:17;;;;;;;4.63;4.22;;;20.60;99.90;;;22.16;69.10;97848.03;5288029;28;20195;-85
2021/07/29 07:24:53;;;;;;;;;;;;;;;;;;;;;
2021/07/29 07:30:37;;;;;;;4.70;4.15;;;21.90;99.90;;;23.68;62.40;97846.69;5286772;28;20195;-79
2021/07/29 07:33:16;;;;;;;4.25;3.90;;;22.20;99.90;;;23.82;61.70;97851.13;5286565;28;20227;-81
2021/07/29 07:35:56;;;;;;;4.38;3.90;;;22.30;99.90;;;24.42;59.65;97850.44;5290627;28;20262;-81
2021/07/29 07:39:10;;;;;;;;;;;;;;;;;;;;;
2021/07/29 07:42:02;;;;;;;;;;;;;;;;;;;;;
2021/07/29 07:48:47;;;;;;;;;;;;;;;;;;;;;
2021/07/29 07:51:29;;;;;;;3.55;3.30;;;25.40;99.90;;;28.74;45.81;97834.53;5275638;28;20224;-80
2021/07/29 07:54:30;;;;;;;;;;;;;;;;;;;;;
2021/07/29 07:57:34;;;;;;;;;;;;;;;;;;;;;
2021/07/29 08:00:26;;;;;;;3.45;3.15;;;26.70;98.10;;;30.18;40.08;97824.84;5288410;28;20295;-83
2021/07/29 08:08:00;;;;;;;3.50;3.20;;;27.00;96.30;;;30.71;38.71;97834.19;5220243;28;20201;-82
2021/07/29 08:10:39;;;;;;;3.20;2.90;;;27.20;96.30;;;30.11;39.69;97823.25;5150198;28;20217;-80
2021/07/29 08:13:12;;;;;;;3.17;2.88;;;27.20;95.60;;;29.61;40.04;97828.63;5269191;28;20271;-82
2021/07/29 08:15:46;;;;;;;3.00;2.80;;;26.60;96.20;;;28.92;41.82;97827.22;5284299;28;20229;-79
2021/07/29 08:22:06;;;;;;;3.47;3.28;;;26.60;96.40;;;28.88;42.10;97821.16;5286640;28;20309;-83
2021/07/29 08:24:44;;;;;;;3.85;2.97;;;26.70;95.60;;;28.91;42.36;97822.88;5291921;28;20711;-82
2021/07/29 08:27:37;;;;;;;;;;;;;;;;;;;;;
2021/07/29 08:30:31;;;;;;;3.00;2.80;;;27.20;94.30;;;28.77;42.19;97822.22;5293611;28;20207;-80
2021/07/29 08:33:45;;;;;;;3.28;3.08;;;27.20;94.70;;;28.80;41.96;97824.81;5287800;28;20218;-78
2021/07/29 08:36:36;;;;;;;4.15;3.75;;;27.00;94.90;;;28.78;42.15;97818.69;5295642;28;20195;-80
2021/07/29 08:42:30;;;;;;;;;;;;;;;;;;;;;
2021/07/29 08:45:28;;;;;;;4.03;3.63;;;26.90;94.90;;;28.26;41.51;97810.66;5288180;28;20590;-80
2021/07/29 08:49:01;;;;;;;;;;;;;;;;;;;;;
2021/07/29 08:51:44;;;;;;;3.95;3.75;;;27.00;92.30;;;28.12;41.11;97801.25;5169106;28;20225;-81
2021/07/29 08:54:48;;;;;;;3.70;3.40;;;26.70;93.20;;;27.87;41.18;97803.31;5226960;28;20213;-83
2021/07/29 08:57:42;;;;;;;;;;;;;;;;;;;;;
2021/07/29 09:00:28;;;;;;;4.70;4.07;;;26.20;93.20;;;27.55;41.13;97812.44;5226767;28;20219;-82
2021/07/29 09:03:20;;;;;;;4.25;3.95;;;26.20;92.90;;;27.60;41.54;97802.75;5227496;28;20224;-79
2021/07/29 09:06:13;;;;;;;4.97;3.72;;;26.40;93.10;;;27.81;41.91;97807.78;5225332;28;20250;-80
2021/07/29 09:08:49;;;;;;;4.18;3.88;;;26.80;92.50;;;27.96;41.71;97805.84;5228202;28;20695;-79
2021/07/29 09:11:44;;;;;;;4.40;3.60;;;26.90;92.60;;;28.04;42.85;97812.75;5276965;28;20226;-79
2021/07/29 09:20:48;;;;;;;4.45;4.05;;;26.30;92.20;;;27.33;41.63;97802.19;5290850;28;20202;-80
2021/07/29 09:23:27;;;;;;;4.50;4.20;;;25.70;93.00;;;26.99;41.78;97804.25;5292664;28;20273;-77
2021/07/29 09:26:01;;;;;;;4.53;3.80;;;25.50;93.10;;;27.06;43.42;97807.66;5283724;28;20207;-79
2021/07/29 09:28:38;;;;;;;5.05;3.63;;;25.60;94.00;;;27.23;41.96;97797.91;5284025;28;20489;-79
2021/07/29 09:31:19;;;;;;;4.32;3.92;;;26.00;92.90;;;27.35;41.91;97797.75;5287584;28;20201;-78
2021/07/29 09:33:59;;;;;;;4.20;3.80;;;26.30;92.20;;;27.48;41.94;97803.78;5293230;28;20226;-80
2021/07/29 09:36:34;;;;;;;4.18;3.78;;;26.60;92.30;;;27.76;42.07;97800.81;5297934;28;20209;-80
2021/07/29 09:39:28;;;;;;;3.95;3.65;;;26.60;92.50;;;27.94;41.27;97802.38;5296427;28;20194;-80
2021/07/29 09:42:16;;;;;;;3.83;3.53;;;26.90;92.30;;;27.78;41.32;97799.88;5287998;28;20249;-80
2021/07/29 09:44:53;;;;;;;4.15;3.75;;;26.50;92.50;;;27.60;41.99;97803.63;5285915;28;20202;-82
2021/07/29 09:47:41;;;;;;;4.10;3.70;;;26.50;92.30;;;27.88;42.63;97799.81;5296126;28;20268;-83
2021/07/29 09:50:18;;;;;;;3.97;3.67;;;26.80;92.80;;;28.08;42.65;97797.78;5294387;28;20201;-79
2021/07/29 09:52:55;;;;;;;4.45;4.05;;;27.00;92.90;;;28.25;40.88;97793.16;5295664;28;20293;-80
2021/07/29 09:55:38;;;;;;;4.32;4.00;;;27.10;91.80;;;28.23;41.21;97797.56;5295369;28;20202;-80
2021/07/29 09:58:28;;;;;;;4.18;3.78;;;27.00;92.00;;;28.30;41.12;97785.19;5278723;28;20184;-81
2021/07/29 10:04:23;;;;;;;4.22;3.85;;;26.70;92.60;;;27.95;40.17;97796.22;5289401;28;20268;-82
2021/07/29 10:07:00;;;;;;;4.07;3.72;;;26.30;91.70;;;27.60;40.85;97800.13;5281199;28;20668;-79
2021/07/29 10:09:38;;;;;;;4.30;4.00;;;25.90;91.90;;;27.42;40.53;97795.09;5286184;28;20198;-80
2021/07/29 10:12:15;;;;;;;4.75;4.35;;;25.40;92.30;;;27.19;41.17;97788.34;5288888;28;20190;-81
2021/07/29 10:14:51;;;;;;;5.22;4.50;;;25.30;92.50;;;27.16;41.02;97788.38;5288924;28;20758;-80
2021/07/29 10:18:06;;;;;;;5.10;4.60;;;25.20;92.50;;;26.92;41.46;97781.56;5287924;28;20198;-79
2021/07/29 10:20:40;;;;;;;4.70;4.30;;;25.20;92.20;;;27.10;41.60;97778.78;5289188;28;20203;-78
2021/07/29 10:23:30;;;;;;;5.03;4.57;;;25.60;92.10;;;27.19;41.37;97777.84;5286655;28;20222;-78
2021/07/29 10:26:09;;;;;;;4.40;4.10;;;25.90;91.80;;;27.27;41.67;97778.63;5281220;28;20643;-79
2021/07/29 10:28:42;;;;;;;4.70;4.35;;;26.30;91.50;;;27.50;40.09;97786.25;5285797;28;20195;-79
2021/07/29 10:31:17;;;;;;;4.75;4.28;;;26.60;90.80;;;27.51;39.56;97781.84;5279107;28;20204;-79
2021/07/29 10:34:27;;;;;;;4.05;3.75;;;26.50;90.30;;;27.47;40.26;97780.13;5295211;28;20230;-79
2021/07/29 10:37:01;;;;;;;4.70;4.30;;;26.40;90.30;;;27.33;40.21;97783.81;5292990;28;20368;-78
2021/07/29 10:39:58;;;;;;;4.97;4.40;;;26.20;90.50;;;27.38;40.39;97781.13;5293903;28;20572;-78
2021/07/29 10:42:33;;;;;;;4.55;4.25;;;26.40;90.40;;;27.31;40.84;97776.84;5293858;28;20249;-78
2021/07/29 10:45:09;;;;;;;4.55;4.15;;;26.30;91.10;;;27.34;39.94;97761.91;5297653;28;20202;-79
2021/07/29 10:54:14;;;;;;;4.50;4.10;;;26.20;91.00;;;27.34;41.58;97767.16;5282247;28;20215;-80
2021/07/29 10:56:49;;;;;;;4.47;4.15;;;26.40;91.30;;;27.48;40.50;97755.63;5284945;28;20191;-79
2021/07/29 10:59:32;;;;;;;4.63;4.10;;;26.60;90.50;;;27.78;40.16;97760.47;5283876;28;20238;-79
2021/07/29 11:02:09;;;;;;;4.25;3.95;;;26.70;90.40;;;27.89;40.23;97760.38;5287624;28;20650;-78
2021/07/29 11:04:57;;;;;;;4.35;4.05;;;27.00;90.30;;;28.09;39.80;97754.84;5286324;28;20236;-79
2021/07/29 11:07:35;;;;;;;4.38;4.07;;;27.20;89.90;;;28.11;39.32;97755.69;5285504;28;20244;-81
2021/07/29 11:16:19;;;;;;;4.70;4.18;;;27.10;90.70;;;27.63;41.72;97755.44;5270773;28;20210;-82
2021/07/29 11:19:03;;;;;;;4.75;4.35;;;26.60;91.80;;;27.51;42.68;97755.59;5285025;28;20226;-82
2021/07/29 11:21:44;;;;;;;4.68;4.20;;;26.30;92.00;;;27.13;42.69;97752.50;5287616;28;20207;-81
2021/07/29 11:24:28;;;;;;;4.10;3.70;;;26.00;92.40;;;26.96;42.80;97757.91;5278066;28;20229;-81
2021/07/29 11:30:23;;;;;;;4.93;4.53;;;25.60;93.00;;;26.70;44.57;97759.91;5287579;28;20626;-81
2021/07/29 11:39:10;;;;;;;4.78;4.45;;;25.40;92.30;;;26.79;43.46;97749.34;5286132;28;20194;-81
2021/07/29 11:42:13;;;;;;;5.22;4.72;;;25.50;92.90;;;26.93;42.79;97742.19;5288208;28;21844;-81
2021/07/29 11:44:49;;;;;;;5.00;4.50;;;25.70;92.30;;;26.89;41.70;97743.09;5285301;28;20286;-80
2021/07/29 11:47:25;;;;;;;4.78;4.38;;;25.70;91.60;;;26.82;41.11;97744.06;5286505;28;20776;-81
2021/07/29 11:50:00;;;;;;;5.10;4.70;;;25.80;90.70;;;26.77;41.98;97729.25;5283659;28;20742;-79
2021/07/29 11:52:52;;;;;;;6.28;4.55;;;25.70;91.50;;;26.68;42.37;97732.81;5289790;28;20768;-81
2021/07/29 11:55:29;;;;;;;4.82;4.43;;;25.60;91.20;;;26.80;42.28;97732.69;5288609;28;20742;-82
2021/07/29 11:58:25;;;;;;;5.60;5.10;;;25.70;91.70;;;26.97;41.31;97732.53;5292442;28;20191;-81
2021/07/29 12:01:25;;;;;;;4.90;4.60;;;25.90;90.90;;;27.04;41.30;97728.97;5296556;28;20199;-81
2021/07/29 12:06:56;;;;;;;5.05;4.63;;;25.90;90.90;;;27.02;40.74;97719.38;5288032;28;20214;-82
2021/07/29 12:09:35;;;;;;;6.43;5.30;;;25.90;90.80;;;26.98;41.53;97720.28;5284263;28;20793;-80
2021/07/29 12:12:53;;;;;;;;;;;;;;;;;;;;;
2021/07/29 12:16:12;;;;;;;5.38;4.88;;;26.30;91.20;;;27.27;40.17;97710.38;5161284;28;20302;-81
2021/07/29 12:19:25;;;;;;;5.32;4.90;;;26.20;89.40;;;27.42;40.92;97703.19;5286706;28;20632;-82
2021/07/29 12:22:40;;;;;;;5.43;4.82;;;26.20;90.90;;;27.42;40.67;97709.31;5244025;28;20206;-84